Time;durP1;ratioP1;P1;durP2;ratioP2;P2;SDS_P1;SDS_P2;PMS_P1;PMS_P2;Temp;Humidity;BMP_temperature;BMP_pressure;BME280_temperature;BME280_humidity;BME280_pressure;Samples;Min_cycle;Max_cycle;Signal;HPM_P1;HPM_P2
2022/06/23 05:18:09;;;;;;;3.98;2.50;;;;;;;14.38;82.17;97746.68;1871558;76;22064;-62
2022/06/23 05:21:07;;;;;;;4.22;2.20;;;;;;;14.37;82.30;97751.82;1827690;78;20931;-60
2022/06/23 05:23:50;;;;;;;7.37;2.50;;;;;;;14.48;82.07;97750.94;1827814;78;21112;-63
2022/06/23 05:26:31;;;;;;;6.78;2.50;;;;;;;14.61;81.92;97760.17;1827737;78;20951;-65
2022/06/23 05:29:03;;;;;;;3.20;2.05;;;;;;;14.77;81.40;97755.05;1827901;78;20896;-61
2022/06/23 05:31:34;;;;;;;4.62;2.10;;;;;;;14.94;81.17;97763.88;1790209;80;20975;-61
2022/06/23 05:34:07;;;;;;;5.53;1.80;;;;;;;15.10;80.15;97762.00;1775278;80;20922;-65
2022/06/23 05:37:05;;;;;;;2.45;1.77;;;;;;;15.23;79.70;97762.31;1791542;80;21128;-66
2022/06/23 05:39:49;;;;;;;3.80;2.02;;;;;;;15.36;79.46;97770.72;1772512;80;20976;-62
2022/06/23 05:42:23;;;;;;;4.40;1.95;;;;;;;15.49;78.55;97767.84;1748053;82;20992;-61
2022/06/23 05:44:55;;;;;;;3.05;1.92;;;;;;;15.58;78.07;97764.52;1750683;81;21625;-65
2022/06/23 05:47:21;;;;;;;4.05;2.42;;;;;;;15.68;77.50;97772.24;1777128;78;21076;-67
2022/06/23 05:49:57;;;;;;;5.58;2.47;;;;;;;15.71;77.11;97764.02;1772898;78;21112;-64
2022/06/23 05:52:35;;;;;;;4.10;2.27;;;;;;;15.75;77.11;97760.91;1786642;78;20963;-66
2022/06/23 05:55:19;;;;;;;2.25;2.00;;;;;;;15.74;75.51;97755.27;1784487;78;21025;-65
2022/06/23 05:57:53;;;;;;;3.58;2.08;;;;;;;15.70;76.25;97761.91;1785161;78;21326;-63
2022/06/23 06:00:57;;;;;;;2.40;2.00;;;;;;;15.73;76.27;97763.92;1786648;78;21119;-69
2022/06/23 06:03:46;;;;;;;5.15;1.80;;;;;;;15.80;76.67;97771.53;1805682;78;21087;-69
2022/06/23 06:06:12;;;;;;;4.85;2.12;;;;;;;15.88;76.20;97768.51;1785810;78;21425;-61
2022/06/23 06:11:48;;;;;;;3.02;2.10;;;;;;;16.00;75.95;97781.53;1776434;80;20918;-68
2022/06/23 06:14:17;;;;;;;3.15;2.37;;;;;;;16.06;75.68;97788.30;1773522;78;20992;-65
2022/06/23 06:16:44;;;;;;;2.92;2.30;;;;;;;16.12;76.28;97789.70;1780727;80;21069;-65
2022/06/23 06:19:16;;;;;;;2.30;2.10;;;;;;;16.21;76.28;97786.36;1771677;80;20953;-69
2022/06/23 06:21:44;;;;;;;4.80;2.10;;;;;;;16.32;76.11;97786.17;1761432;79;21026;-68
2022/06/23 06:24:25;;;;;;;3.92;2.67;;;;;;;16.46;75.63;97789.16;1774977;80;21117;-64
2022/06/23 06:26:53;;;;;;;5.25;2.30;;;;;;;16.55;75.37;97797.45;1766307;79;20929;-65
2022/06/23 06:29:24;;;;;;;3.30;2.20;;;;;;;16.64;75.17;97801.41;1766148;79;21512;-64
2022/06/23 06:31:57;;;;;;;3.75;2.70;;;;;;;16.70;75.15;97806.85;1771174;79;21047;-64
2022/06/23 06:34:32;;;;;;;5.50;2.58;;;;;;;16.72;74.82;97807.30;1752515;79;21021;-65
2022/06/23 06:36:58;;;;;;;2.87;2.27;;;;;;;16.75;75.29;97807.97;1727519;81;20947;-62
2022/06/23 06:39:30;;;;;;;3.27;2.00;;;;;;;16.79;75.21;97807.55;1751179;80;20965;-60
2022/06/23 06:42:07;;;;;;;3.72;2.02;;;;;;;16.82;74.96;97813.06;1751794;80;23156;-65
2022/06/23 06:44:35;;;;;;;3.55;2.15;;;;;;;16.83;74.68;97809.80;1749517;79;20873;-60
2022/06/23 06:47:02;;;;;;;4.97;2.40;;;;;;;16.84;74.81;97811.39;1755553;79;20973;-66
2022/06/23 06:49:29;;;;;;;5.28;2.17;;;;;;;16.86;74.85;97811.84;1762866;79;21055;-64
2022/06/23 06:51:56;;;;;;;3.90;2.20;;;;;;;16.89;75.22;97811.16;1756177;80;21418;-63
2022/06/23 06:54:44;;;;;;;3.37;2.62;;;;;;;16.92;75.00;97807.79;1752202;80;21857;-61
2022/06/23 06:57:15;;;;;;;4.22;2.12;;;;;;;16.97;75.11;97810.28;1744791;82;20979;-63
2022/06/23 06:59:49;;;;;;;2.10;1.82;;;;;;;17.03;75.18;97807.02;1762046;80;20997;-62
2022/06/23 07:02:34;;;;;;;6.95;2.27;;;;;;;17.11;75.21;97810.75;1764776;80;21020;-63
2022/06/23 07:05:23;;;;;;;4.55;2.10;;;;;;;17.16;74.60;97815.95;1762326;79;21003;-64
2022/06/23 07:08:09;;;;;;;3.90;2.52;;;;;;;17.14;74.78;97820.92;1752552;81;21096;-62
2022/06/23 07:10:40;;;;;;;4.35;2.17;;;;;;;17.15;73.71;97821.13;1737148;81;21052;-65
2022/06/23 07:13:18;;;;;;;4.70;2.42;;;;;;;17.10;73.66;97820.78;1751964;80;21095;-68
2022/06/23 07:15:53;;;;;;;4.90;2.30;;;;;;;17.11;74.09;97817.52;1812209;77;21224;-66
2022/06/23 07:18:40;;;;;;;2.30;2.10;;;;;;;17.21;74.51;97823.06;1842841;77;21528;-64
2022/06/23 07:21:24;;;;;;;3.67;2.25;;;;;;;17.32;74.62;97823.63;1818077;78;21282;-67
2022/06/23 07:24:05;;;;;;;;;;;;;;;17.44;73.78;97822.28;1814823;77;20947;-65
2022/06/23 07:26:47;;;;;;;3.45;2.35;;;;;;;17.50;73.35;97818.21;1810213;78;20099;-66
2022/06/23 07:29:21;;;;;;;3.40;2.30;;;;;;;17.57;73.44;97823.11;1782816;80;21049;-69
2022/06/23 07:32:26;;;;;;;4.58;2.30;;;;;;;17.68;73.67;97822.31;1776578;80;21100;-63
2022/06/23 07:34:57;;;;;;;3.85;2.60;;;;;;;17.78;73.28;97831.31;1749339;80;21073;-68
2022/06/23 07:37:47;;;;;;;3.00;2.37;;;;;;;17.85;72.43;97829.97;1812973;77;21528;-66
2022/06/23 07:40:14;;;;;;;4.72;2.17;;;;;;;17.92;72.57;97826.91;1814133;77;20943;-69
2022/06/23 07:43:10;;;;;;;4.72;2.08;;;;;;;18.05;72.44;97835.79;1816021;77;21066;-68
2022/06/23 07:45:55;;;;;;;5.10;1.92;;;;;;;18.19;72.11;97832.14;1813878;77;25956;-61
2022/06/23 07:48:23;;;;;;;3.30;2.00;;;;;;;18.33;71.15;97828.48;1806704;78;21206;-70
2022/06/23 07:50:49;;;;;;;1.67;1.45;;;;;;;18.42;70.39;97828.56;1818334;77;21545;-71
2022/06/23 07:53:28;;;;;;;4.53;1.87;;;;;;;18.52;69.73;97825.96;1809443;77;20972;-62
2022/06/23 07:55:54;;;;;;;4.35;1.80;;;;;;;18.60;69.56;97833.17;1812604;77;21060;-66
2022/06/23 07:58:23;;;;;;;2.95;1.80;;;;;;;18.69;69.41;97833.81;1816550;77;21042;-66
2022/06/23 08:01:01;;;;;;;2.90;1.80;;;;;;;18.79;69.04;97833.31;1813494;78;21093;-62
2022/06/23 08:03:36;;;;;;;4.55;1.70;;;;;;;18.88;69.10;97835.30;1811681;77;21552;-64
2022/06/23 08:06:06;;;;;;;5.80;1.75;;;;;;;19.01;69.43;97839.50;1810884;78;20955;-62
2022/06/23 08:08:35;;;;;;;5.83;1.80;;;;;;;19.10;68.30;97838.77;1761870;78;21018;-69
2022/06/23 08:13:54;;;;;;;1.75;1.40;;;;;;;19.45;67.19;97841.63;1826532;77;21240;-63
2022/06/23 08:19:29;;;;;;;;;;;;;;;19.60;66.29;97840.81;1827019;77;21039;-67
2022/06/23 08:22:13;;;;;;;3.30;1.40;;;;;;;19.77;65.11;97839.66;1806193;77;20179;-62
2022/06/23 08:24:42;;;;;;;;;;;;;;;19.88;64.75;97830.41;1798741;77;21580;-65
2022/06/23 08:27:13;;;;;;;3.20;1.72;;;;;;;20.00;64.54;97826.98;1787863;80;21086;-66
2022/06/23 08:29:53;;;;;;;6.45;1.70;;;;;;;20.14;64.42;97831.36;1814119;77;21080;-66
2022/06/23 08:32:20;;;;;;;2.05;1.12;;;;;;;20.26;64.45;97835.34;1817192;77;21689;-61
2022/06/23 08:35:11;;;;;;;2.65;1.60;;;;;;;20.40;61.67;97834.84;1847864;77;20950;-63
2022/06/23 08:37:46;;;;;;;3.50;1.52;;;;;;;20.48;58.33;97833.86;1826239;77;21505;-65
2022/06/23 08:40:45;;;;;;;2.40;1.15;;;;;;;20.56;59.32;97836.16;1850265;77;21496;-65
2022/06/23 08:43:30;;;;;;;2.15;1.40;;;;;;;20.58;57.80;97833.86;1823886;77;21058;-63
2022/06/23 08:46:10;;;;;;;2.70;1.17;;;;;;;20.58;57.55;97833.86;1822740;77;20909;-65
2022/06/23 08:49:05;;;;;;;4.05;1.27;;;;;;;20.52;57.63;97831.98;1816635;77;20914;-63
2022/06/23 08:52:15;;;;;;;1.50;1.30;;;;;;;20.45;58.58;97840.80;1816478;78;21402;-67
2022/06/23 08:54:49;;;;;;;1.80;1.10;;;;;;;20.51;59.53;97836.44;1827361;77;21807;-66
2022/06/23 08:57:27;;;;;;;5.45;1.17;;;;;;;20.68;58.38;97837.37;1821995;77;21042;-65
2022/06/23 09:00:10;;;;;;;2.20;1.05;;;;;;;20.77;56.95;97839.28;1820980;77;21093;-62
2022/06/23 09:03:04;;;;;;;1.82;1.12;;;;;;;20.90;56.38;97836.61;1775538;79;21599;-67
2022/06/23 09:05:49;;;;;;;5.60;1.45;;;;;;;21.07;55.24;97836.18;1773136;80;20860;-60
2022/06/23 09:08:27;;;;;;;1.92;0.90;;;;;;;21.25;55.16;97825.58;1767916;80;21114;-60
2022/06/23 09:11:20;;;;;;;2.08;1.10;;;;;;;21.38;54.42;97827.78;1818648;77;20925;-62
2022/06/23 09:14:05;;;;;;;1.25;1.02;;;;;;;21.51;53.25;97833.23;1787734;79;20902;-63
2022/06/23 09:17:07;;;;;;;2.73;1.30;;;;;;;21.60;53.41;97825.59;1818891;78;21358;-64
2022/06/23 09:20:06;;;;;;;3.02;1.20;;;;;;;21.63;51.79;97828.95;1796010;79;21415;-61
2022/06/23 09:23:18;;;;;;;1.77;0.95;;;;;;;21.53;52.91;97832.29;1752000;80;21296;-63
2022/06/23 09:26:06;;;;;;;4.55;1.27;;;;;;;21.48;53.39;97831.83;1775117;79;20923;-66
2022/06/23 09:28:56;;;;;;;5.47;1.35;;;;;;;21.50;53.68;97842.58;1772294;80;20967;-65
2022/06/23 09:31:45;;;;;;;3.25;1.40;;;;;;;21.51;54.39;97841.41;1739645;82;20982;-60
2022/06/23 09:34:32;;;;;;;4.20;1.07;;;;;;;21.55;53.07;97840.88;1749192;82;21054;-63
2022/06/23 09:37:16;;;;;;;2.35;1.20;;;;;;;21.56;51.92;97843.83;1749635;82;21283;-62
2022/06/23 09:40:19;;;;;;;3.67;1.45;;;;;;;21.58;53.43;97844.25;1751140;82;20958;-61
2022/06/23 09:43:03;;;;;;;3.25;1.17;;;;;;;21.58;53.43;97841.52;1685148;83;21177;-59
2022/06/23 09:45:38;;;;;;;2.60;1.27;;;;;;;21.65;54.28;97841.63;1748042;82;21446;-57
2022/06/23 09:48:32;;;;;;;5.53;1.02;;;;;;;21.70;52.02;97841.33;1749845;79;21398;-61
2022/06/23 09:51:26;;;;;;;1.90;1.10;;;;;;;21.72;51.66;97845.83;1803432;78;21426;-65
2022/06/23 09:54:16;;;;;;;1.55;0.80;;;;;;;21.79;51.12;97845.94;1759402;80;20930;-60
2022/06/23 09:56:53;;;;;;;3.47;1.20;;;;;;;21.91;50.82;97844.97;1792134;78;20931;-66
2022/06/23 09:59:49;;;;;;;2.27;1.10;;;;;;;22.00;50.96;97851.55;1802246;78;21105;-63
2022/06/23 10:02:41;;;;;;;3.27;1.00;;;;;;;22.07;49.99;97855.73;1794970;78;21349;-60
2022/06/23 10:05:22;;;;;;;2.15;1.02;;;;;;;22.14;51.35;97861.29;1749770;82;21119;-62
2022/06/23 10:07:57;;;;;;;0.95;0.82;;;;;;;22.23;51.87;97860.44;1815413;78;21392;-61
2022/06/23 10:10:50;;;;;;;;;;;;;;;22.35;51.46;97865.07;1764693;78;21167;-60
2022/06/23 10:13:38;;;;;;;6.60;1.10;;;;;;;22.42;49.54;97864.41;1787899;80;20193;-60
2022/06/23 10:16:29;;;;;;;3.77;1.37;;;;;;;22.52;51.33;97859.63;1787696;79;21408;-64
2022/06/23 10:19:19;;;;;;;2.72;1.10;;;;;;;22.84;51.09;97867.67;1785316;80;21418;-62
2022/06/23 10:22:22;;;;;;;2.65;1.10;;;;;;;23.14;49.49;97862.92;1795540;79;20933;-59
2022/06/23 10:25:03;;;;;;;1.62;1.20;;;;;;;23.30;49.01;97857.78;1791717;79;21027;-60
2022/06/23 10:27:51;;;;;;;1.57;1.15;;;;;;;23.45;48.48;97859.52;1794339;79;20881;-61
2022/06/23 10:30:44;;;;;;;4.50;1.20;;;;;;;23.50;48.99;97852.34;1785579;79;21092;-62
2022/06/23 10:33:39;;;;;;;3.60;1.17;;;;;;;23.52;48.46;97852.75;1792818;78;21207;-64
2022/06/23 10:36:29;;;;;;;3.27;1.07;;;;;;;23.55;46.68;97861.58;1779076;80;21462;-60
2022/06/23 10:39:22;;;;;;;3.27;1.10;;;;;;;23.36;48.72;97863.16;1789057;80;20993;-63
2022/06/23 10:42:05;;;;;;;3.33;1.20;;;;;;;23.17;48.07;97860.59;1790259;80;20959;-64
2022/06/23 10:45:21;;;;;;;2.50;1.00;;;;;;;23.07;48.93;97860.13;1753141;81;21060;-63
2022/06/23 10:47:53;;;;;;;1.40;1.00;;;;;;;23.09;49.09;97858.37;1799210;79;21140;-60
2022/06/23 10:50:54;;;;;;;2.47;1.00;;;;;;;23.20;49.88;97857.13;1780602;79;20970;-62
2022/06/23 10:53:54;;;;;;;2.55;1.12;;;;;;;23.32;50.41;97850.78;1784219;78;21084;-62
2022/06/23 10:56:52;;;;;;;3.30;1.22;;;;;;;23.41;48.49;97855.98;1804848;79;20874;-60
2022/06/23 10:59:39;;;;;;;1.47;1.10;;;;;;;23.27;48.34;97853.09;1792306;79;21053;-60
2022/06/23 11:03:03;;;;;;;1.87;0.90;;;;;;;23.21;49.73;97866.87;1802344;79;21092;-69
2022/06/23 11:05:50;;;;;;;1.80;0.95;;;;;;;23.21;48.80;97857.31;1803748;79;21111;-61
2022/06/23 11:08:44;;;;;;;1.62;1.15;;;;;;;23.07;49.89;97868.31;1809804;78;21484;-62
2022/06/23 11:11:25;;;;;;;1.80;1.07;;;;;;;22.82;50.47;97869.97;1794094;79;20886;-62
2022/06/23 11:14:29;;;;;;;3.90;1.10;;;;;;;22.54;50.27;97873.69;1687657;83;21012;-61
2022/06/23 11:17:26;;;;;;;2.37;1.47;;;;;;;22.26;50.59;97869.23;1793351;80;21234;-62
2022/06/23 11:20:27;;;;;;;1.12;1.02;;;;;;;22.00;51.84;97881.55;1783017;79;21521;-63
2022/06/23 11:22:59;;;;;;;2.27;1.47;;;;;;;21.87;53.14;97878.80;1743108;78;20974;-64
2022/06/23 11:25:34;;;;;;;2.22;1.27;;;;;;;21.78;52.35;97877.09;1814781;79;20952;-63
2022/06/23 11:28:28;;;;;;;3.30;1.32;;;;;;;21.68;53.58;97874.98;1815721;79;20944;-61
2022/06/23 11:31:06;;;;;;;3.77;1.57;;;;;;;21.62;54.32;97881.87;1815778;78;21058;-67
2022/06/23 11:33:54;;;;;;;4.80;1.57;;;;;;;21.60;54.34;97882.81;1815784;77;21044;-63
2022/06/23 11:36:49;;;;;;;2.95;1.45;;;;;;;21.58;55.35;97881.04;1757865;80;20908;-61
2022/06/23 11:39:46;;;;;;;3.10;1.32;;;;;;;21.59;55.45;97880.47;1771455;79;20991;-61
2022/06/23 11:42:51;;;;;;;4.60;1.60;;;;;;;21.51;53.75;97885.00;1769998;80;21107;-62
2022/06/23 11:45:29;;;;;;;2.70;1.32;;;;;;;21.46;53.47;97889.96;1747620;80;22050;-63
2022/06/23 11:48:10;;;;;;;3.17;1.37;;;;;;;21.42;54.54;97885.83;1764683;80;20910;-60
2022/06/23 11:50:57;;;;;;;3.15;1.37;;;;;;;21.48;54.31;97883.00;1746955;80;20937;-61
2022/06/23 11:53:45;;;;;;;4.35;1.67;;;;;;;21.56;55.01;97890.73;1770305;79;21054;-63
2022/06/23 11:56:54;;;;;;;2.40;1.30;;;;;;;21.67;55.20;97882.94;1768142;79;21071;-66
2022/06/23 11:59:43;;;;;;;3.10;1.40;;;;;;;21.82;54.84;97882.59;1750454;79;22030;-64
2022/06/23 12:02:10;;;;;;;6.80;1.30;;;;;;;21.95;53.70;97882.61;1781830;79;21411;-64
2022/06/23 12:04:59;;;;;;;1.60;1.15;;;;;;;22.07;52.95;97884.38;1765563;79;21595;-65
2022/06/23 12:08:00;;;;;;;3.35;1.30;;;;;;;22.20;52.71;97884.36;1773609;79;20950;-64
2022/06/23 12:10:28;;;;;;;3.30;1.42;;;;;;;22.28;50.91;97884.67;1730354;79;21068;-62
2022/06/23 12:12:58;;;;;;;3.42;1.27;;;;;;;22.26;50.96;97896.51;1790680;79;21123;-68
2022/06/23 12:15:29;;;;;;;1.62;1.12;;;;;;;22.22;50.74;97893.75;1777796;79;21411;-61
2022/06/23 12:18:06;;;;;;;2.70;0.90;;;;;;;22.19;51.54;97895.05;1778978;79;20964;-59
2022/06/23 12:20:55;;;;;;;2.15;1.20;;;;;;;22.17;51.24;97895.42;1758073;79;20939;-60
2022/06/23 12:23:42;;;;;;;7.62;1.20;;;;;;;22.15;51.57;97890.13;1767415;81;20907;-62
2022/06/23 12:26:24;;;;;;;2.47;1.32;;;;;;;22.10;51.85;97896.69;1760239;81;21115;-65
2022/06/23 12:29:07;;;;;;;3.70;1.20;;;;;;;22.06;51.86;97904.03;1765360;81;21447;-64
2022/06/23 12:32:19;;;;;;;2.60;1.30;;;;;;;21.98;52.15;97902.91;1788307;80;20934;-64
2022/06/23 12:35:02;;;;;;;2.27;1.30;;;;;;;21.91;52.65;97906.89;1783961;79;20919;-64
2022/06/23 12:37:46;;;;;;;1.67;1.20;;;;;;;21.85;52.47;97904.28;1765776;80;20970;-61
2022/06/23 12:40:44;;;;;;;2.15;1.20;;;;;;;21.79;53.11;97904.55;1770986;80;21999;-66
2022/06/23 12:43:35;;;;;;;2.98;1.40;;;;;;;21.76;52.11;97899.82;1768223;80;20884;-60
2022/06/23 12:46:31;;;;;;;2.45;1.17;;;;;;;21.69;52.85;97902.43;1754395;81;21438;-62
2022/06/23 12:49:08;;;;;;;1.72;1.20;;;;;;;21.72;53.71;97904.44;1781930;80;20888;-65
2022/06/23 12:51:55;;;;;;;2.62;1.35;;;;;;;21.76;53.54;97901.19;1785559;80;20852;-67
2022/06/23 12:54:50;;;;;;;2.35;1.30;;;;;;;21.80;54.47;97907.50;1785376;80;21225;-67
2022/06/23 12:57:57;;;;;;;2.58;1.32;;;;;;;21.88;54.43;97907.64;1775243;80;20978;-64
2022/06/23 13:00:45;;;;;;;3.35;1.40;;;;;;;21.93;54.49;97907.34;1783107;80;20840;-63
2022/06/23 13:03:27;;;;;;;4.58;1.22;;;;;;;21.96;53.86;97907.95;1809989;78;20884;-65
2022/06/23 13:06:05;;;;;;;3.60;1.42;;;;;;;21.93;53.86;97905.97;1797803;78;20974;-64
2022/06/23 13:08:44;;;;;;;5.40;1.37;;;;;;;21.95;53.64;97899.58;1782047;80;21177;-67
2022/06/23 13:11:18;;;;;;;2.75;1.15;;;;;;;22.00;54.64;97907.45;1782808;80;21057;-68
2022/06/23 13:13:58;;;;;;;3.00;1.57;;;;;;;22.11;52.67;97901.56;1785742;80;20911;-64
2022/06/23 13:16:34;;;;;;;4.30;1.20;;;;;;;22.23;52.63;97900.76;1785378;80;20931;-68
2022/06/23 13:19:10;;;;;;;4.03;1.22;;;;;;;22.37;52.48;97897.46;1785179;79;21356;-61
2022/06/23 13:21:39;;;;;;;2.45;1.32;;;;;;;22.52;52.11;97897.84;1785289;80;21118;-62
2022/06/23 13:24:20;;;;;;;3.67;1.40;;;;;;;22.70;51.42;97904.37;1771523;79;20863;-63
2022/06/23 13:27:05;;;;;;;2.42;1.20;;;;;;;22.88;51.63;97899.10;1782268;80;21470;-61
2022/06/23 13:29:45;;;;;;;1.90;1.00;;;;;;;23.07;50.53;97891.53;1785079;80;20935;-64
2022/06/23 13:32:36;;;;;;;2.08;1.00;;;;;;;23.23;51.26;97887.77;1785230;80;21343;-68
2022/06/23 13:35:16;;;;;;;2.05;1.10;;;;;;;23.28;49.75;97888.80;1784969;80;21123;-60
2022/06/23 13:38:03;;;;;;;1.82;1.02;;;;;;;23.18;49.27;97888.89;1785468;80;21375;-67
2022/06/23 13:40:47;;;;;;;3.55;1.05;;;;;;;23.11;50.42;97895.66;1777272;80;20923;-61
2022/06/23 13:43:33;;;;;;;6.05;1.30;;;;;;;23.03;50.41;97890.69;1771644;80;20891;-68
2022/06/23 13:46:11;;;;;;;6.33;1.07;;;;;;;22.90;49.50;97896.20;1758988;80;20981;-61
2022/06/23 13:49:03;;;;;;;2.30;1.20;;;;;;;22.75;49.19;97893.09;1773498;80;22080;-60
2022/06/23 13:52:02;;;;;;;4.37;1.20;;;;;;;22.60;49.92;97891.33;1754635;81;21521;-65
2022/06/23 13:54:41;;;;;;;1.85;1.15;;;;;;;22.44;50.15;97884.70;1762185;80;20970;-63
2022/06/23 13:57:28;;;;;;;1.55;0.93;;;;;;;22.29;50.20;97893.05;1785416;80;20989;-64
2022/06/23 14:00:03;;;;;;;4.90;1.52;;;;;;;22.19;50.14;97892.31;1779945;80;20836;-63
2022/06/23 14:03:05;;;;;;;1.55;1.27;;;;;;;22.07;50.46;97891.19;1767826;80;22154;-62
2022/06/23 14:05:57;;;;;;;2.05;1.22;;;;;;;21.96;51.15;97896.47;1754413;81;20844;-66
2022/06/23 14:08:41;;;;;;;3.05;1.35;;;;;;;21.88;52.54;97891.28;1754438;81;20883;-64
2022/06/23 14:11:42;;;;;;;3.58;1.20;;;;;;;21.80;51.45;97888.98;1725513;79;21010;-65
2022/06/23 14:14:32;;;;;;;2.87;1.17;;;;;;;21.74;51.66;97884.98;1779698;80;21082;-62
2022/06/23 14:17:10;;;;;;;1.55;1.17;;;;;;;21.68;52.18;97880.44;1769123;79;21126;-62
2022/06/23 14:20:10;;;;;;;4.53;1.22;;;;;;;21.69;52.94;97886.08;1757459;80;21014;-63
2022/06/23 14:22:55;;;;;;;3.12;1.35;;;;;;;21.69;52.09;97884.72;1775118;80;21513;-62
2022/06/23 14:25:48;;;;;;;2.72;1.65;;;;;;;21.65;52.34;97885.24;1777498;80;20888;-67
2022/06/23 14:28:34;;;;;;;2.25;1.20;;;;;;;21.66;52.71;97884.10;1777274;80;20876;-65
2022/06/23 14:31:09;;;;;;;3.27;1.55;;;;;;;21.68;53.00;97887.81;1773667;80;21203;-65
2022/06/23 14:33:44;;;;;;;3.35;1.80;;;;;;;21.69;53.82;97883.35;1740751;82;20919;-62
2022/06/23 14:36:30;;;;;;;2.52;1.30;;;;;;;21.73;54.57;97882.85;1772227;80;20946;-69
2022/06/23 14:39:11;;;;;;;3.52;1.20;;;;;;;21.79;54.29;97886.83;1745384;80;21083;-66
2022/06/23 14:41:49;;;;;;;3.95;1.40;;;;;;;21.86;53.89;97890.87;1773905;80;21388;-65
2022/06/23 14:44:45;;;;;;;1.95;1.37;;;;;;;21.87;52.53;97890.49;1772206;80;21141;-65
2022/06/23 14:47:26;;;;;;;4.65;1.40;;;;;;;21.86;53.06;97888.14;1772241;80;21388;-67
2022/06/23 14:50:27;;;;;;;1.77;1.47;;;;;;;21.83;53.47;97889.03;1777025;80;21387;-66
2022/06/23 14:53:34;;;;;;;4.50;1.87;;;;;;;21.85;52.94;97886.56;1777146;79;20896;-62
2022/06/23 14:56:27;;;;;;;2.17;1.82;;;;;;;21.80;53.65;97882.97;1721825;81;21454;-64
2022/06/23 14:59:27;;;;;;;2.70;1.85;;;;;;;21.83;53.90;97884.17;1746354;82;21831;-68
2022/06/23 15:02:17;;;;;;;4.15;1.70;;;;;;;21.81;54.14;97886.45;1736640;81;20929;-69
2022/06/23 15:05:13;;;;;;;2.12;1.27;;;;;;;21.76;54.86;97886.19;1759814;81;20849;-65
2022/06/23 15:07:52;;;;;;;3.75;1.22;;;;;;;21.71;54.04;97881.64;1738732;81;20944;-60
2022/06/23 15:10:43;;;;;;;4.72;1.50;;;;;;;21.66;54.29;97890.91;1753379;81;21043;-66
2022/06/23 15:13:41;;;;;;;4.97;1.37;;;;;;;21.64;54.44;97887.77;1774164;81;20889;-68
2022/06/23 15:16:42;;;;;;;3.20;1.30;;;;;;;21.60;54.97;97889.63;1760489;81;21052;-65
2022/06/23 15:19:41;;;;;;;1.98;1.20;;;;;;;21.60;55.80;97892.36;1744038;82;21052;-62
2022/06/23 15:25:47;;;;;;;2.27;1.10;;;;;;;21.52;55.04;97899.42;1749369;82;21402;-62
2022/06/23 15:28:47;;;;;;;3.95;1.22;;;;;;;21.50;54.37;97895.71;1750152;80;21248;-64
2022/06/23 15:31:39;;;;;;;1.32;0.90;;;;;;;21.46;55.04;97896.20;1778465;80;20920;-68
2022/06/23 15:34:28;;;;;;;2.02;1.17;;;;;;;21.45;54.57;97901.45;1750112;80;20920;-66
2022/06/23 15:37:19;;;;;;;1.72;1.05;;;;;;;21.42;55.10;97896.73;1748607;82;21035;-66
2022/06/23 15:40:09;;;;;;;2.98;1.20;;;;;;;21.45;55.13;97900.09;1748173;81;20988;-65
2022/06/23 15:42:50;;;;;;;1.65;1.17;;;;;;;21.48;55.03;97899.34;1749288;82;21924;-69
2022/06/23 15:45:49;;;;;;;3.17;1.12;;;;;;;21.55;55.73;97899.47;1748875;81;21034;-65
2022/06/23 15:48:26;;;;;;;1.67;1.12;;;;;;;21.56;55.24;97901.05;1703470;82;20964;-62
2022/06/23 15:51:00;;;;;;;2.30;1.20;;;;;;;21.57;55.31;97898.55;1748446;82;21067;-63
2022/06/23 15:53:34;;;;;;;4.58;1.35;;;;;;;21.56;55.32;97905.14;1748807;82;20967;-67
2022/06/23 15:56:08;;;;;;;2.33;1.25;;;;;;;21.54;55.44;97910.17;1720873;82;21216;-64
2022/06/23 15:58:48;;;;;;;2.42;1.25;;;;;;;21.52;55.58;97911.69;1748635;81;21026;-63
2022/06/23 16:01:37;;;;;;;3.37;1.30;;;;;;;21.45;55.41;97911.00;1747124;81;21059;-68
2022/06/23 16:04:20;;;;;;;4.00;1.17;;;;;;;21.40;55.29;97907.20;1748190;81;20999;-61
2022/06/23 16:06:49;;;;;;;2.77;1.20;;;;;;;21.36;55.10;97911.78;1748683;82;21356;-64
2022/06/23 16:09:33;;;;;;;5.75;1.47;;;;;;;21.33;55.40;97912.52;1749310;82;21435;-64
2022/06/23 16:12:00;;;;;;;1.82;1.20;;;;;;;21.31;55.27;97916.19;1727676;82;20955;-67
2022/06/23 16:14:31;;;;;;;2.27;1.20;;;;;;;21.28;55.46;97913.39;1749301;81;21411;-62
2022/06/23 16:17:04;;;;;;;3.08;1.20;;;;;;;21.23;55.45;97913.11;1721349;82;20978;-63
2022/06/23 16:19:36;;;;;;;2.42;1.20;;;;;;;21.16;55.68;97914.34;1748021;81;20972;-62
2022/06/23 16:22:08;;;;;;;5.15;1.10;;;;;;;21.09;55.85;97914.20;1741526;82;21990;-67
2022/06/23 16:24:48;;;;;;;3.40;1.35;;;;;;;21.03;55.78;97914.27;1743297;82;20893;-62
2022/06/23 16:27:40;;;;;;;8.35;1.50;;;;;;;20.93;55.15;97918.36;1743364;82;20845;-63
2022/06/23 16:30:38;;;;;;;2.05;1.30;;;;;;;20.84;56.02;97927.32;1743352;82;20892;-66
2022/06/23 16:33:36;;;;;;;3.70;1.40;;;;;;;20.77;56.41;97923.66;1677398;84;21467;-62
2022/06/23 16:36:20;;;;;;;4.90;1.47;;;;;;;20.72;56.97;97926.66;1677702;85;21779;-66
2022/06/23 16:39:24;;;;;;;2.08;1.35;;;;;;;20.64;57.06;97923.56;1726871;82;21419;-63
2022/06/23 16:42:05;;;;;;;3.50;1.30;;;;;;;20.57;57.83;97930.22;1743458;82;21478;-66
2022/06/23 16:45:00;;;;;;;4.90;1.60;;;;;;;20.48;58.22;97931.00;1731546;82;20996;-63
2022/06/23 16:47:34;;;;;;;2.12;1.27;;;;;;;20.40;58.15;97930.84;1743649;82;20893;-62
2022/06/23 16:50:16;;;;;;;2.12;1.47;;;;;;;20.35;58.50;97924.31;1743464;82;21411;-66
2022/06/23 16:53:16;;;;;;;2.87;1.40;;;;;;;20.31;58.53;97926.17;1743578;82;20901;-67
2022/06/23 16:55:55;;;;;;;2.85;1.50;;;;;;;20.27;58.92;97932.12;1743363;82;20893;-65
2022/06/23 16:58:45;;;;;;;1.98;1.50;;;;;;;20.23;59.39;97933.19;1743296;82;20877;-67
2022/06/23 17:01:20;;;;;;;4.33;1.40;;;;;;;20.18;59.30;97934.22;1743573;82;21475;-63
2022/06/23 17:04:02;;;;;;;;;;;;;;;20.12;60.12;97931.53;1693927;82;21819;-62
2022/06/23 17:06:37;;;;;;;5.90;1.45;;;;;;;20.08;60.52;97936.11;1742842;82;20075;-65
2022/06/23 17:09:23;;;;;;;1.92;1.35;;;;;;;20.03;60.48;97935.02;1743554;82;21369;-67
2022/06/23 17:12:08;;;;;;;5.22;1.62;;;;;;;19.99;60.58;97939.59;1718303;82;20896;-62
2022/06/23 17:14:40;;;;;;;5.50;1.70;;;;;;;19.94;60.76;97934.42;1743508;82;20896;-61
2022/06/23 17:17:12;;;;;;;2.58;1.40;;;;;;;19.89;61.25;97938.75;1740875;82;21416;-63
2022/06/23 17:19:46;;;;;;;3.22;1.65;;;;;;;19.84;61.94;97945.81;1743651;82;20932;-62
2022/06/23 17:22:27;;;;;;;3.62;1.75;;;;;;;19.77;62.42;97940.20;1749013;81;20921;-67
2022/06/23 17:24:56;;;;;;;3.90;1.90;;;;;;;19.73;62.72;97940.12;1749093;82;21383;-61
2022/06/23 17:27:43;;;;;;;3.83;1.62;;;;;;;19.69;62.87;97937.08;1749002;82;20932;-67
2022/06/23 17:30:27;;;;;;;1.85;1.67;;;;;;;19.65;63.03;97938.92;1749000;82;21135;-67
2022/06/23 17:33:09;;;;;;;6.00;1.90;;;;;;;19.62;63.56;97947.20;1732479;82;20897;-63
2022/06/23 17:35:51;;;;;;;5.97;2.05;;;;;;;19.59;63.96;97945.20;1748893;81;20892;-64
2022/06/23 17:45:19;;;;;;;6.10;1.80;;;;;;;19.56;64.61;97958.69;1748985;82;21210;-66
2022/06/23 17:47:56;;;;;;;7.10;1.80;;;;;;;19.52;64.78;97957.81;1749313;82;20896;-62
2022/06/23 17:50:30;;;;;;;4.30;1.92;;;;;;;19.48;65.36;97959.06;1748987;82;20924;-62
2022/06/23 17:52:57;;;;;;;4.67;2.30;;;;;;;19.45;65.82;97961.70;1748826;82;20892;-66
2022/06/23 17:55:28;;;;;;;4.50;1.90;;;;;;;19.43;66.03;97968.05;1748886;82;21072;-67
2022/06/23 17:58:05;;;;;;;4.12;2.00;;;;;;;19.39;66.26;97976.09;1748832;81;23210;-68
2022/06/23 18:00:53;;;;;;;4.03;1.90;;;;;;;19.37;66.65;97978.94;1749010;82;21467;-65
2022/06/23 18:03:33;;;;;;;6.70;1.87;;;;;;;19.33;67.10;97980.74;1740323;82;20889;-64
2022/06/23 18:06:09;;;;;;;3.85;1.52;;;;;;;19.28;67.56;97983.14;1748873;81;20904;-62
2022/06/23 18:08:46;;;;;;;4.67;2.00;;;;;;;19.25;67.87;97980.31;1746928;82;21585;-63
2022/06/23 18:11:22;;;;;;;3.47;1.80;;;;;;;19.23;68.18;97982.59;1749107;82;21274;-65
2022/06/23 18:14:12;;;;;;;6.17;1.95;;;;;;;19.21;68.57;97986.23;1747704;82;20994;-66
2022/06/23 18:17:01;;;;;;;5.15;2.00;;;;;;;19.19;68.68;97992.58;1748858;82;21007;-62
2022/06/23 18:19:36;;;;;;;3.42;2.08;;;;;;;19.18;68.78;97994.49;1748938;81;20963;-64
2022/06/23 18:22:13;;;;;;;3.45;2.10;;;;;;;19.18;69.07;97990.98;1688528;83;20908;-66
2022/06/23 18:24:54;;;;;;;4.65;2.00;;;;;;;19.17;69.09;97993.49;1706973;84;21112;-66
2022/06/23 18:27:58;;;;;;;6.87;2.17;;;;;;;19.15;69.21;97999.84;1701692;84;21522;-62